Time;durP1;ratioP1;P1;durP2;ratioP2;P2;SDS_P1;SDS_P2;PMS_P1;PMS_P2;Temp;Humidity;BMP_temperature;BMP_pressure;BME280_temperature;BME280_humidity;BME280_pressure;Samples;Min_cycle;Max_cycle;Signal;HPM_P1;HPM_P2
2023/03/21 00:01:04;;;;;;;29.25;20.80;;;9.80;99.90;;;;;;5062491;28;20025;-73
2023/03/21 00:03:32;;;;;;;32.15;21.88;;;9.80;99.90;;;;;;5058061;28;20032;-73
2023/03/21 00:05:58;;;;;;;38.10;22.33;;;9.90;99.90;;;;;;5056015;28;20419;-73
2023/03/21 00:08:25;;;;;;;39.60;21.45;;;9.80;99.90;;;;;;5056214;28;20025;-73
2023/03/21 00:10:59;;;;;;;32.63;20.60;;;9.80;99.90;;;;;;5059672;28;20469;-73
2023/03/21 00:13:27;;;;;;;34.50;22.20;;;9.70;99.90;;;;;;5061394;28;20086;-73
2023/03/21 00:15:53;;;;;;;31.83;20.02;;;9.60;99.90;;;;;;5055189;28;20021;-73
2023/03/21 00:18:24;;;;;;;31.40;20.15;;;9.60;99.90;;;;;;5059503;28;20100;-73
2023/03/21 00:21:01;;;;;;;34.25;20.45;;;9.40;99.90;;;;;;5058008;28;20029;-73
2023/03/21 00:23:28;;;;;;;29.00;20.50;;;9.40;99.90;;;;;;5053144;28;20383;-73
2023/03/21 00:25:54;;;;;;;28.83;19.50;;;9.50;99.90;;;;;;5060147;28;20029;-73
2023/03/21 00:28:20;;;;;;;32.60;20.15;;;9.50;99.90;;;;;;5061133;28;20029;-73
2023/03/21 00:30:45;;;;;;;29.08;18.95;;;9.60;99.90;;;;;;5051151;28;20025;-73
2023/03/21 00:33:12;;;;;;;31.13;19.23;;;9.60;99.90;;;;;;5054462;28;20032;-74
2023/03/21 00:35:43;;;;;;;33.25;19.52;;;9.50;99.90;;;;;;5059680;28;20029;-73
2023/03/21 00:38:09;;;;;;;32.13;20.45;;;9.30;99.90;;;;;;5051343;28;20052;-73
2023/03/21 00:40:35;;;;;;;31.33;20.27;;;9.20;99.90;;;;;;5055320;28;20067;-73
2023/03/21 00:43:01;;;;;;;29.58;19.55;;;9.10;99.90;;;;;;5063530;28;20483;-73
2023/03/21 00:45:27;;;;;;;33.90;22.55;;;9.20;99.90;;;;;;5053632;28;20125;-73
2023/03/21 00:47:52;;;;;;;26.77;19.27;;;9.30;99.90;;;;;;5054162;28;20112;-73
2023/03/21 00:50:18;;;;;;;31.95;20.00;;;9.30;99.90;;;;;;5061757;28;20036;-73
2023/03/21 00:52:44;;;;;;;34.63;19.70;;;9.30;99.90;;;;;;5057233;28;20025;-73
2023/03/21 00:55:13;;;;;;;29.27;19.23;;;9.30;99.90;;;;;;5061458;28;20032;-73
2023/03/21 00:57:39;;;;;;;30.17;18.58;;;9.40;99.90;;;;;;5066302;28;20569;-73
2023/03/21 01:00:09;;;;;;;29.92;18.77;;;9.30;99.90;;;;;;5066081;28;20099;-73
2023/03/21 01:02:36;;;;;;;31.33;19.15;;;8.90;99.90;;;;;;5061743;28;20029;-73
2023/03/21 01:05:03;;;;;;;31.95;18.92;;;9.10;99.90;;;;;;5067524;28;20029;-73
2023/03/21 01:07:29;;;;;;;30.95;19.15;;;9.30;99.90;;;;;;5058208;28;20037;-73
2023/03/21 01:09:55;;;;;;;29.80;18.02;;;9.20;99.90;;;;;;5061514;28;20099;-73
2023/03/21 01:12:21;;;;;;;33.20;19.98;;;9.00;99.90;;;;;;5064692;28;20103;-73
2023/03/21 01:14:46;;;;;;;29.08;18.60;;;9.00;99.90;;;;;;5058982;28;20683;-73
2023/03/21 01:17:12;;;;;;;28.25;18.42;;;8.90;99.90;;;;;;5055644;28;20029;-73
2023/03/21 01:19:38;;;;;;;31.30;19.35;;;8.90;99.90;;;;;;5050006;28;20033;-73
2023/03/21 01:22:04;;;;;;;25.88;17.45;;;8.80;99.90;;;;;;5064287;28;20090;-73
2023/03/21 01:24:30;;;;;;;28.15;16.48;;;8.90;99.90;;;;;;5051676;28;20471;-73
2023/03/21 01:26:56;;;;;;;29.00;20.05;;;8.70;99.90;;;;;;5057998;28;20109;-73
2023/03/21 01:29:21;;;;;;;28.65;19.05;;;8.70;99.90;;;;;;5049213;28;20551;-73
2023/03/21 01:31:47;;;;;;;36.17;23.10;;;8.90;99.90;;;;;;5051895;28;20075;-73
2023/03/21 01:34:13;;;;;;;37.60;23.50;;;8.90;99.90;;;;;;5054221;28;20037;-73
2023/03/21 01:36:39;;;;;;;42.22;24.92;;;8.90;99.90;;;;;;5050525;28;20139;-73
2023/03/21 01:39:05;;;;;;;34.47;21.58;;;8.90;99.90;;;;;;5049426;28;20036;-73
2023/03/21 01:41:37;;;;;;;34.38;22.10;;;8.90;99.90;;;;;;5056731;28;20055;-73
2023/03/21 01:44:04;;;;;;;31.98;20.80;;;9.20;99.90;;;;;;5049542;28;20033;-73
2023/03/21 01:46:38;;;;;;;38.28;23.48;;;9.40;99.90;;;;;;5059911;28;20041;-73
2023/03/21 01:49:33;;;;;;;35.40;21.70;;;9.60;99.90;;;;;;5063662;28;20021;-73
2023/03/21 01:52:03;;;;;;;29.33;19.37;;;9.60;99.90;;;;;;5066699;28;20039;-73
2023/03/21 01:54:36;;;;;;;28.63;19.27;;;9.50;99.90;;;;;;5061467;28;20873;-73
2023/03/21 01:57:07;;;;;;;32.92;20.30;;;8.90;99.90;;;;;;5060779;28;20483;-73
2023/03/21 01:59:39;;;;;;;38.22;20.95;;;8.80;99.90;;;;;;5059233;28;20140;-73
2023/03/21 02:02:16;;;;;;;32.33;20.27;;;8.90;99.90;;;;;;5052413;28;20028;-73
2023/03/21 02:04:54;;;;;;;32.60;20.70;;;8.80;99.90;;;;;;5058420;28;20025;-73
2023/03/21 02:07:28;;;;;;;33.60;18.95;;;8.60;99.90;;;;;;5060232;28;20025;-73
2023/03/21 02:09:54;;;;;;;30.52;20.60;;;8.70;99.90;;;;;;5059411;28;20025;-73
2023/03/21 02:12:20;;;;;;;32.58;20.17;;;8.80;99.90;;;;;;5065280;28;20063;-73
2023/03/21 02:14:48;;;;;;;32.20;21.27;;;8.70;99.90;;;;;;5064716;28;20060;-73
2023/03/21 02:17:44;;;;;;;32.58;20.75;;;8.90;99.90;;;;;;5060263;28;20028;-73
2023/03/21 02:20:28;;;;;;;33.05;21.42;;;8.90;99.90;;;;;;5049780;28;20040;-72
2023/03/21 02:23:27;;;;;;;31.27;19.25;;;9.00;99.90;;;;;;5054650;28;20139;-73
2023/03/21 02:26:11;;;;;;;35.67;21.75;;;8.90;99.90;;;;;;5054944;28;20032;-72
2023/03/21 02:28:56;;;;;;;32.97;21.48;;;8.80;99.90;;;;;;5051380;28;20021;-72
2023/03/21 02:31:31;;;;;;;37.20;23.77;;;8.90;99.90;;;;;;5057577;28;20040;-73
2023/03/21 02:34:03;;;;;;;37.72;24.10;;;8.90;99.90;;;;;;5053448;28;20044;-72
2023/03/21 02:36:53;;;;;;;34.65;20.70;;;8.80;99.90;;;;;;5057613;28;20060;-72
2023/03/21 02:39:43;;;;;;;31.08;19.23;;;8.70;99.90;;;;;;5051980;28;20045;-72
2023/03/21 02:42:42;;;;;;;34.40;19.95;;;8.70;99.90;;;;;;5051721;28;20367;-72
2023/03/21 02:45:16;;;;;;;32.10;20.17;;;8.60;99.90;;;;;;5052659;28;20036;-72
2023/03/21 02:47:48;;;;;;;29.35;19.10;;;8.60;99.90;;;;;;5064627;28;21313;-72
2023/03/21 02:50:29;;;;;;;33.20;20.35;;;8.50;99.90;;;;;;5050217;28;20054;-72
2023/03/21 02:52:57;;;;;;;32.38;19.90;;;8.50;99.90;;;;;;5053765;28;20032;-72
2023/03/21 02:55:28;;;;;;;34.47;20.48;;;8.50;99.90;;;;;;5059798;28;20052;-72
2023/03/21 02:57:56;;;;;;;33.63;21.85;;;8.30;99.90;;;;;;5058058;28;20521;-72
2023/03/21 03:00:28;;;;;;;33.58;21.10;;;8.50;99.90;;;;;;5056366;28;20047;-72
2023/03/21 03:02:54;;;;;;;34.65;21.70;;;8.50;99.90;;;;;;5060992;28;20054;-73
2023/03/21 03:05:26;;;;;;;34.40;20.80;;;8.60;99.90;;;;;;5065553;28;20103;-72
2023/03/21 03:07:59;;;;;;;30.08;19.40;;;8.30;99.90;;;;;;5063398;28;20503;-72
2023/03/21 03:10:43;;;;;;;33.05;20.10;;;8.20;99.90;;;;;;5060766;28;20093;-72
2023/03/21 03:13:24;;;;;;;34.63;21.77;;;8.10;99.90;;;;;;5065485;28;20032;-72
2023/03/21 03:16:08;;;;;;;36.83;23.20;;;8.30;99.90;;;;;;5068065;28;20299;-72
2023/03/21 03:18:52;;;;;;;41.33;24.88;;;8.30;99.90;;;;;;5069412;28;20032;-72
2023/03/21 03:21:22;;;;;;;37.58;23.30;;;8.60;99.90;;;;;;5058468;28;20036;-72
2023/03/21 03:23:59;;;;;;;36.67;22.95;;;8.50;99.90;;;;;;5066244;28;20059;-72
2023/03/21 03:26:40;;;;;;;34.08;22.00;;;8.20;99.90;;;;;;5069276;28;20390;-73
2023/03/21 03:29:12;;;;;;;40.40;25.10;;;8.10;99.90;;;;;;5064426;28;20024;-72
2023/03/21 03:31:43;;;;;;;37.72;24.08;;;8.20;99.90;;;;;;5070811;28;20036;-72
2023/03/21 03:34:13;;;;;;;40.35;23.73;;;8.30;99.90;;;;;;5060485;28;20024;-72
2023/03/21 03:36:42;;;;;;;33.78;22.23;;;8.40;99.90;;;;;;5067054;28;20036;-72
2023/03/21 03:39:10;;;;;;;36.33;23.10;;;8.40;99.90;;;;;;5052914;28;20040;-73
2023/03/21 03:42:27;;;;;;;39.70;23.45;;;8.30;99.90;;;;;;5070674;28;20039;-72
2023/03/21 03:44:54;;;;;;;38.22;23.30;;;8.40;99.90;;;;;;5061514;28;20658;-72
2023/03/21 03:47:28;;;;;;;37.55;23.73;;;8.20;99.90;;;;;;5059498;28;20036;-72
2023/03/21 03:50:19;;;;;;;38.63;23.52;;;8.20;99.90;;;;;;5059830;28;20037;-72
2023/03/21 03:52:50;;;;;;;44.85;26.33;;;8.10;99.90;;;;;;5059455;28;20079;-72
2023/03/21 03:55:17;;;;;;;38.45;24.85;;;8.10;99.90;;;;;;5069161;28;20024;-72
2023/03/21 03:57:44;;;;;;;41.58;26.88;;;8.20;99.90;;;;;;5063735;28;20507;-72
2023/03/21 04:00:11;;;;;;;40.30;26.13;;;8.10;99.90;;;;;;5052398;28;20036;-70
2023/03/21 04:02:38;;;;;;;37.47;23.25;;;8.10;99.90;;;;;;5050486;28;20059;-71
2023/03/21 04:05:04;;;;;;;40.30;25.83;;;8.20;99.90;;;;;;5052576;28;20470;-71
2023/03/21 04:07:30;;;;;;;40.45;26.05;;;8.20;99.90;;;;;;5054054;28;20040;-71
2023/03/21 04:09:56;;;;;;;42.03;26.10;;;8.20;99.90;;;;;;5047408;28;20435;-72
2023/03/21 04:12:23;;;;;;;53.33;28.92;;;8.10;99.90;;;;;;5047903;28;20123;-71
2023/03/21 04:14:49;;;;;;;42.20;26.92;;;8.10;99.90;;;;;;5055535;28;20093;-71
2023/03/21 04:17:16;;;;;;;44.42;26.42;;;8.10;99.90;;;;;;5061477;28;20574;-71
2023/03/21 04:19:42;;;;;;;39.75;24.55;;;8.00;99.90;;;;;;5058649;28;20362;-71
2023/03/21 04:22:07;;;;;;;38.88;26.55;;;8.00;99.90;;;;;;5050438;28;20039;-72
2023/03/21 04:24:36;;;;;;;43.47;25.10;;;8.00;99.90;;;;;;5064364;28;20463;-71
2023/03/21 04:27:02;;;;;;;39.92;26.75;;;8.20;99.90;;;;;;5061026;28;20516;-71
2023/03/21 04:29:28;;;;;;;49.83;29.98;;;8.40;99.90;;;;;;5055219;28;20403;-72
2023/03/21 04:31:54;;;;;;;44.65;29.40;;;8.40;99.90;;;;;;5059374;28;20395;-71
2023/03/21 04:34:22;;;;;;;40.55;27.88;;;8.30;99.90;;;;;;5064447;28;20090;-71
2023/03/21 04:36:49;;;;;;;36.88;24.20;;;8.20;99.90;;;;;;5057795;28;20048;-71
2023/03/21 04:39:16;;;;;;;41.42;25.08;;;8.20;99.90;;;;;;5051641;28;20124;-71
2023/03/21 04:41:44;;;;;;;35.58;23.52;;;8.10;99.90;;;;;;5056585;28;20033;-71
2023/03/21 04:44:11;;;;;;;39.65;24.45;;;8.00;99.90;;;;;;5060928;28;20060;-71
2023/03/21 04:46:38;;;;;;;35.90;22.15;;;8.00;99.90;;;;;;5057307;28;20028;-71
2023/03/21 04:49:05;;;;;;;39.75;22.65;;;7.80;99.90;;;;;;5060673;28;20419;-71
2023/03/21 04:51:31;;;;;;;35.67;23.55;;;7.90;99.90;;;;;;5056701;28;20022;-72
2023/03/21 04:53:57;;;;;;;36.22;22.15;;;7.70;99.90;;;;;;5055915;28;20040;-71
2023/03/21 04:56:30;;;;;;;36.90;22.77;;;7.90;99.90;;;;;;5063337;28;20482;-71
2023/03/21 04:59:00;;;;;;;35.13;22.77;;;7.90;99.90;;;;;;5045613;28;20048;-71
2023/03/21 05:01:29;;;;;;;34.22;20.88;;;7.90;99.90;;;;;;5060508;28;20187;-71
2023/03/21 05:03:59;;;;;;;32.00;20.67;;;8.00;99.90;;;;;;5045010;28;20032;-71
2023/03/21 05:06:26;;;;;;;35.63;21.58;;;8.20;99.90;;;;;;5052434;28;20081;-72
2023/03/21 05:08:55;;;;;;;34.97;19.10;;;8.10;99.90;;;;;;5050426;28;20035;-71
2023/03/21 05:11:21;;;;;;;31.80;20.30;;;8.20;99.90;;;;;;5057149;28;20049;-71
2023/03/21 05:13:47;;;;;;;36.90;23.63;;;8.10;99.90;;;;;;5052325;28;20033;-71
2023/03/21 05:16:12;;;;;;;35.30;20.63;;;8.10;99.90;;;;;;5052985;28;20037;-71
2023/03/21 05:18:38;;;;;;;34.10;21.17;;;8.00;99.90;;;;;;5049919;28;20048;-71
2023/03/21 05:21:06;;;;;;;34.45;21.92;;;8.10;99.90;;;;;;5054201;28;20021;-71
2023/03/21 05:23:37;;;;;;;37.17;22.42;;;8.20;99.90;;;;;;5048598;28;20082;-71
2023/03/21 05:26:05;;;;;;;34.30;22.42;;;8.20;99.90;;;;;;5055521;28;20036;-71
2023/03/21 05:28:35;;;;;;;33.15;22.48;;;8.40;99.90;;;;;;5051683;28;20040;-71
2023/03/21 05:31:02;;;;;;;40.88;25.45;;;8.20;99.90;;;;;;5061968;28;20036;-71
2023/03/21 05:33:28;;;;;;;38.67;25.30;;;8.10;99.90;;;;;;5057471;28;20059;-71
2023/03/21 05:35:54;;;;;;;41.00;25.40;;;8.00;99.90;;;;;;5059517;28;20052;-71
2023/03/21 05:38:20;;;;;;;36.40;23.08;;;7.90;99.90;;;;;;5048137;28;20381;-71
2023/03/21 05:40:47;;;;;;;34.33;21.88;;;7.90;99.90;;;;;;5058594;28;20086;-71
2023/03/21 05:43:13;;;;;;;32.90;21.40;;;7.70;99.90;;;;;;5052949;28;20471;-71
2023/03/21 05:45:38;;;;;;;30.45;21.45;;;7.70;99.90;;;;;;5054547;28;20028;-71
2023/03/21 05:48:04;;;;;;;35.55;22.60;;;7.80;99.90;;;;;;5052897;28;20035;-71
2023/03/21 05:50:30;;;;;;;34.80;21.40;;;7.90;99.90;;;;;;5056164;28;20033;-72
2023/03/21 05:52:55;;;;;;;30.85;20.02;;;8.10;99.90;;;;;;5057491;28;20559;-71
2023/03/21 05:55:21;;;;;;;32.33;21.45;;;8.00;99.90;;;;;;5049750;28;20462;-71
2023/03/21 05:57:47;;;;;;;33.60;22.33;;;8.00;99.90;;;;;;5059210;28;20032;-71
2023/03/21 06:00:14;;;;;;;31.73;20.60;;;8.00;99.90;;;;;;5058064;28;20090;-71
2023/03/21 06:02:40;;;;;;;35.90;21.70;;;8.10;99.90;;;;;;5061285;28;20078;-71
2023/03/21 06:05:06;;;;;;;37.03;21.13;;;8.20;99.90;;;;;;5056992;28;20028;-71
2023/03/21 06:07:32;;;;;;;37.90;23.63;;;8.20;99.90;;;;;;5057900;28;20497;-71
2023/03/21 06:09:57;;;;;;;31.08;21.42;;;8.20;99.90;;;;;;5055773;28;20065;-71
2023/03/21 06:12:23;;;;;;;30.58;21.00;;;8.20;99.90;;;;;;5054471;28;20056;-71
2023/03/21 06:14:49;;;;;;;34.20;21.95;;;8.20;99.90;;;;;;5057676;28;20119;-71
2023/03/21 06:17:15;;;;;;;32.92;20.90;;;8.20;99.90;;;;;;5059292;28;20028;-72
2023/03/21 06:19:41;;;;;;;34.17;23.40;;;8.10;99.90;;;;;;5056774;28;20556;-71
2023/03/21 06:22:06;;;;;;;38.20;23.35;;;8.10;99.90;;;;;;5055367;28;20032;-71
2023/03/21 06:24:32;;;;;;;33.20;20.02;;;8.20;99.90;;;;;;5056846;28;20470;-71
2023/03/21 06:26:58;;;;;;;40.58;22.52;;;8.50;99.90;;;;;;5057235;28;20040;-71
2023/03/21 06:29:23;;;;;;;33.85;21.70;;;8.40;99.90;;;;;;5053736;28;20123;-72
2023/03/21 06:31:49;;;;;;;30.83;21.02;;;8.40;99.90;;;;;;5052232;28;20094;-73
2023/03/21 06:34:15;;;;;;;36.47;21.90;;;8.50;99.90;;;;;;5056073;28;20483;-73
2023/03/21 06:36:43;;;;;;;32.22;21.48;;;8.50;99.90;;;;;;5062438;28;20060;-73
2023/03/21 06:39:09;;;;;;;30.50;19.42;;;8.60;99.90;;;;;;5056007;28;20044;-72
2023/03/21 06:41:35;;;;;;;32.80;21.85;;;8.60;99.90;;;;;;5050942;28;20481;-72
2023/03/21 06:44:01;;;;;;;33.78;22.40;;;8.70;99.90;;;;;;5050042;28;20064;-73
2023/03/21 06:46:27;;;;;;;37.22;22.50;;;8.60;99.90;;;;;;5055055;28;20131;-73
2023/03/21 06:48:53;;;;;;;30.33;20.92;;;8.70;99.90;;;;;;5057190;28;20113;-72
2023/03/21 06:51:19;;;;;;;31.27;20.70;;;8.90;99.90;;;;;;5055985;28;20048;-73
2023/03/21 06:53:44;;;;;;;33.35;22.42;;;8.90;99.90;;;;;;5056778;28;20414;-72
2023/03/21 06:56:12;;;;;;;30.92;20.20;;;8.90;99.90;;;;;;5055447;28;20695;-72
2023/03/21 06:58:38;;;;;;;33.70;21.40;;;9.00;99.90;;;;;;5055021;28;20043;-72
2023/03/21 07:01:05;;;;;;;30.67;21.70;;;9.10;99.90;;;;;;5056801;28;20025;-72
2023/03/21 07:03:33;;;;;;;37.05;22.88;;;9.20;99.90;;;;;;5053025;28;20549;-72
2023/03/21 07:06:05;;;;;;;34.22;21.00;;;9.40;99.90;;;;;;5054354;28;20016;-72
2023/03/21 07:08:31;;;;;;;34.90;21.52;;;9.50;99.90;;;;;;5052741;28;20028;-72
2023/03/21 07:10:57;;;;;;;29.95;22.25;;;9.50;99.90;;;;;;5052931;28;20025;-73
2023/03/21 07:13:22;;;;;;;31.15;20.42;;;9.40;99.90;;;;;;5055173;28;20115;-72
2023/03/21 07:15:48;;;;;;;33.35;20.08;;;9.30;99.90;;;;;;5049935;28;20164;-72
2023/03/21 07:18:14;;;;;;;34.28;23.52;;;9.20;99.90;;;;;;5059569;28;20024;-72
2023/03/21 07:20:39;;;;;;;32.85;23.08;;;9.20;99.90;;;;;;5056964;28;20045;-72
2023/03/21 07:23:06;;;;;;;30.10;19.58;;;9.10;99.90;;;;;;5050208;28;20485;-73
2023/03/21 07:25:32;;;;;;;31.98;21.48;;;9.10;99.90;;;;;;5057537;28;20032;-73
2023/03/21 07:27:58;;;;;;;30.35;20.13;;;9.10;99.90;;;;;;5050329;28;20266;-73
2023/03/21 07:30:24;;;;;;;30.52;20.90;;;9.20;99.90;;;;;;5052666;28;20456;-73
2023/03/21 07:32:49;;;;;;;35.95;21.35;;;9.30;99.90;;;;;;5053794;28;20562;-73
2023/03/21 07:35:17;;;;;;;28.23;19.13;;;9.30;99.90;;;;;;5053016;28;20025;-73
2023/03/21 07:37:43;;;;;;;31.77;20.95;;;9.50;99.90;;;;;;5055790;28;20135;-73
2023/03/21 07:40:11;;;;;;;30.00;20.27;;;9.50;99.90;;;;;;5059394;28;20048;-73
2023/03/21 07:42:40;;;;;;;33.03;21.33;;;9.70;99.90;;;;;;5057409;28;20506;-73
2023/03/21 07:45:07;;;;;;;36.00;22.13;;;9.60;99.90;;;;;;5054998;28;20032;-73
2023/03/21 07:47:34;;;;;;;31.45;20.00;;;9.50;99.90;;;;;;5058207;28;20097;-72
2023/03/21 07:49:59;;;;;;;27.33;18.92;;;9.40;99.90;;;;;;5052406;28;20036;-72
2023/03/21 07:52:26;;;;;;;31.00;21.08;;;9.50;99.90;;;;;;5052926;28;20036;-73
2023/03/21 07:54:51;;;;;;;36.50;21.73;;;9.60;99.90;;;;;;5054816;28;20121;-72
2023/03/21 07:57:17;;;;;;;32.40;21.13;;;9.70;99.90;;;;;;5056987;28;20158;-73
2023/03/21 07:59:43;;;;;;;28.75;19.73;;;9.70;99.90;;;;;;5056852;28;20068;-73
2023/03/21 08:02:16;;;;;;;34.95;22.27;;;9.80;99.90;;;;;;5058708;28;20020;-73
2023/03/21 08:04:42;;;;;;;33.47;20.42;;;9.90;99.90;;;;;;5060310;28;20056;-73
2023/03/21 08:07:09;;;;;;;31.27;21.38;;;9.90;99.90;;;;;;5061021;28;20097;-72
2023/03/21 08:09:35;;;;;;;57.90;20.90;;;9.80;99.90;;;;;;5057095;28;20067;-72
2023/03/21 08:12:02;;;;;;;30.80;20.30;;;9.90;99.90;;;;;;5055527;28;20037;-72
2023/03/21 08:14:27;;;;;;;34.72;20.60;;;10.00;99.90;;;;;;5057056;28;20170;-71
2023/03/21 08:16:53;;;;;;;30.80;20.27;;;10.10;99.90;;;;;;5055736;28;20475;-71
2023/03/21 08:19:20;;;;;;;27.15;19.15;;;10.20;99.90;;;;;;5059365;28;20041;-71
2023/03/21 08:21:48;;;;;;;30.70;20.90;;;10.30;99.90;;;;;;5059836;28;20065;-71
2023/03/21 08:24:14;;;;;;;30.60;20.70;;;10.30;99.90;;;;;;5059259;28;20032;-71
2023/03/21 08:26:41;;;;;;;31.63;20.83;;;10.50;99.90;;;;;;5061835;28;20036;-71
2023/03/21 08:29:07;;;;;;;28.95;19.77;;;10.60;99.90;;;;;;5058616;28;20028;-72
2023/03/21 08:31:33;;;;;;;29.30;19.70;;;10.60;99.90;;;;;;5052375;28;20028;-71
2023/03/21 08:33:58;;;;;;;52.30;41.72;;;10.60;99.90;;;;;;5053409;28;20035;-71
2023/03/21 08:36:25;;;;;;;45.85;22.65;;;10.70;99.90;;;;;;5048847;28;20076;-71
2023/03/21 08:38:53;;;;;;;33.03;18.80;;;10.70;99.90;;;;;;5052994;28;20125;-71
2023/03/21 08:41:20;;;;;;;37.20;20.58;;;10.80;99.90;;;;;;5055500;28;20403;-71
2023/03/21 08:43:47;;;;;;;28.45;20.35;;;10.90;99.90;;;;;;5055378;28;20025;-71
2023/03/21 08:46:13;;;;;;;30.05;20.25;;;10.90;99.90;;;;;;5055187;28;20071;-71
2023/03/21 08:48:39;;;;;;;29.88;19.33;;;10.90;99.90;;;;;;5055740;28;20102;-71
2023/03/21 08:51:05;;;;;;;27.40;19.65;;;10.90;99.90;;;;;;5058542;28;20566;-72
2023/03/21 08:53:32;;;;;;;30.25;18.55;;;11.00;99.90;;;;;;5049691;28;20447;-71
2023/03/21 08:55:57;;;;;;;28.48;19.08;;;11.10;99.90;;;;;;5055805;28;20047;-72
2023/03/21 08:58:23;;;;;;;24.05;17.63;;;11.20;99.90;;;;;;5060090;28;20032;-71
2023/03/21 09:00:49;;;;;;;25.83;18.17;;;11.30;99.90;;;;;;5063085;28;20040;-71
2023/03/21 09:03:15;;;;;;;29.05;19.83;;;11.30;99.90;;;;;;5056572;28;20028;-71
2023/03/21 09:05:44;;;;;;;24.33;17.67;;;11.40;99.90;;;;;;5061655;28;20046;-72
2023/03/21 09:08:11;;;;;;;27.45;17.67;;;11.50;99.90;;;;;;5057479;28;20482;-71
2023/03/21 09:10:38;;;;;;;27.42;17.52;;;11.60;99.90;;;;;;5061543;28;20067;-72
2023/03/21 09:13:04;;;;;;;26.33;17.05;;;11.70;99.90;;;;;;5049557;28;20855;-72
2023/03/21 09:15:30;;;;;;;25.20;18.73;;;11.60;99.90;;;;;;5056848;28;20029;-70
2023/03/21 09:17:57;;;;;;;25.58;18.75;;;11.60;99.90;;;;;;5058626;28;20115;-71
2023/03/21 09:20:29;;;;;;;26.23;17.40;;;11.90;99.90;;;;;;5061536;28;20043;-71
2023/03/21 09:22:55;;;;;;;26.30;18.55;;;11.80;99.90;;;;;;5061976;28;20024;-71
2023/03/21 09:25:23;;;;;;;27.23;17.50;;;11.90;99.90;;;;;;5061528;28;20071;-71
2023/03/21 09:27:50;;;;;;;23.60;16.70;;;12.60;99.90;;;;;;5059153;28;20044;-71
2023/03/21 09:30:19;;;;;;;23.63;16.75;;;15.80;96.60;;;;;;5056325;28;20115;-72
2023/03/21 09:32:49;;;;;;;24.13;15.43;;;17.10;94.20;;;;;;5059652;28;20025;-72
2023/03/21 09:35:17;;;;;;;27.02;17.27;;;16.60;93.90;;;;;;5061844;28;20036;-72
2023/03/21 09:37:44;;;;;;;24.83;16.92;;;15.40;94.30;;;;;;5056927;28;20056;-72
2023/03/21 09:40:34;;;;;;;21.90;15.80;;;14.40;95.70;;;;;;5060419;28;20525;-72
2023/03/21 09:43:19;;;;;;;23.98;15.00;;;14.00;96.70;;;;;;5053511;28;20056;-73
2023/03/21 09:46:20;;;;;;;25.92;17.10;;;13.70;96.90;;;;;;5061526;28;20043;-72
2023/03/21 09:48:56;;;;;;;22.70;15.80;;;13.60;97.10;;;;;;5060348;28;20033;-72
2023/03/21 09:51:35;;;;;;;29.15;17.05;;;13.60;97.50;;;;;;5051077;28;20604;-73
2023/03/21 09:54:20;;;;;;;22.80;16.65;;;13.70;97.30;;;;;;5054351;28;20028;-73
2023/03/21 09:56:46;;;;;;;;;;;13.90;98.20;;;;;;5062752;28;20033;-72
2023/03/21 09:59:35;;;;;;;27.77;17.98;;;14.10;97.50;;;;;;5054766;28;19920;-72
2023/03/21 10:02:02;;;;;;;24.77;17.13;;;14.00;97.20;;;;;;5056034;28;20770;-72
2023/03/21 10:04:30;;;;;;;28.45;17.65;;;13.90;97.00;;;;;;5061799;28;20040;-72
2023/03/21 10:07:00;;;;;;;25.38;17.55;;;13.80;97.20;;;;;;5052090;28;20044;-72
2023/03/21 10:09:28;;;;;;;27.05;17.15;;;14.00;97.30;;;;;;5053397;28;20028;-72
2023/03/21 10:12:07;;;;;;;34.20;17.83;;;14.20;96.70;;;;;;5052751;28;20550;-72
2023/03/21 10:14:37;;;;;;;24.05;17.27;;;14.30;97.00;;;;;;5053307;28;20055;-73
2023/03/21 10:17:22;;;;;;;25.40;18.17;;;14.20;96.60;;;;;;5055238;28;20807;-72
2023/03/21 10:19:57;;;;;;;24.65;16.75;;;13.90;96.70;;;;;;5049676;28;20037;-72
2023/03/21 10:22:23;;;;;;;26.00;18.10;;;14.10;97.00;;;;;;5056825;28;20111;-72
2023/03/21 10:24:49;;;;;;;24.45;16.70;;;14.30;96.80;;;;;;5056791;28;20104;-72
2023/03/21 10:27:15;;;;;;;22.92;17.35;;;14.50;97.00;;;;;;5054085;28;20418;-72
2023/03/21 10:29:44;;;;;;;23.25;17.23;;;14.40;96.50;;;;;;5053097;28;20087;-73
2023/03/21 10:32:14;;;;;;;27.88;18.52;;;14.50;97.20;;;;;;5061535;28;20098;-72
2023/03/21 10:34:44;;;;;;;27.30;17.38;;;14.70;96.60;;;;;;5058236;28;20074;-73
2023/03/21 10:37:12;;;;;;;22.60;17.67;;;14.80;96.40;;;;;;5057519;28;20147;-73
2023/03/21 10:39:40;;;;;;;26.60;17.25;;;14.70;95.90;;;;;;5057845;28;20048;-73
2023/03/21 10:42:17;;;;;;;26.58;16.45;;;14.80;96.10;;;;;;5061219;28;20497;-72
2023/03/21 10:44:46;;;;;;;27.88;16.70;;;14.90;95.70;;;;;;5059241;28;20491;-72
2023/03/21 10:47:19;;;;;;;24.73;15.85;;;15.00;96.10;;;;;;5056744;28;20670;-73
2023/03/21 10:49:46;;;;;;;22.48;16.10;;;14.90;95.80;;;;;;5049958;28;20029;-73
2023/03/21 10:52:20;;;;;;;23.92;16.88;;;15.10;95.80;;;;;;5057848;28;20116;-73
2023/03/21 10:54:47;;;;;;;28.08;16.38;;;15.30;95.60;;;;;;5057363;28;20082;-73
2023/03/21 10:57:21;;;;;;;23.77;16.70;;;15.50;94.90;;;;;;5057521;28;20509;-73
2023/03/21 10:59:57;;;;;;;23.77;17.35;;;15.60;95.10;;;;;;5060106;28;20032;-73
2023/03/21 11:02:33;;;;;;;21.65;16.38;;;15.60;95.00;;;;;;5052160;28;20036;-72
2023/03/21 11:05:17;;;;;;;26.65;15.15;;;15.70;95.00;;;;;;5059163;28;20058;-73
2023/03/21 11:07:43;;;;;;;23.07;16.23;;;16.00;94.50;;;;;;5055637;28;20032;-73
2023/03/21 11:10:27;;;;;;;23.23;16.45;;;16.50;94.10;;;;;;5060767;28;20549;-72
2023/03/21 11:12:56;;;;;;;23.63;15.63;;;16.60;94.10;;;;;;5059736;28;20024;-73
2023/03/21 11:15:51;;;;;;;20.48;15.88;;;16.30;93.80;;;;;;5050415;28;20398;-72
2023/03/21 11:18:29;;;;;;;;;;;16.30;94.10;;;;;;5056492;28;20040;-73
2023/03/21 11:21:07;;;;;;;22.63;14.98;;;16.40;94.20;;;;;;5057951;28;20461;-72
2023/03/21 11:23:37;;;;;;;20.73;13.63;;;16.70;93.60;;;;;;5052771;28;20572;-73
2023/03/21 11:26:15;;;;;;;20.15;13.65;;;16.80;92.90;;;;;;5053725;28;20036;-72
2023/03/21 11:28:43;;;;;;;20.70;13.38;;;16.50;93.30;;;;;;5053593;28;20029;-73
2023/03/21 11:31:09;;;;;;;17.27;13.38;;;16.80;93.90;;;;;;5054732;28;20031;-73
2023/03/21 11:33:44;;;;;;;18.45;14.02;;;17.00;93.20;;;;;;5056186;28;20357;-73
2023/03/21 11:36:22;;;;;;;20.27;14.10;;;17.10;92.70;;;;;;5058184;28;20051;-73
2023/03/21 11:38:51;;;;;;;19.90;13.15;;;17.00;92.90;;;;;;5061540;28;20032;-73
2023/03/21 11:41:29;;;;;;;17.27;11.85;;;17.20;92.50;;;;;;5064053;28;20044;-73
2023/03/21 11:43:55;;;;;;;16.90;11.80;;;17.20;92.20;;;;;;5065539;28;20100;-73
2023/03/21 11:46:27;;;;;;;19.98;13.25;;;17.20;93.00;;;;;;5060426;28;20037;-73
2023/03/21 11:48:54;;;;;;;22.33;14.18;;;17.30;92.40;;;;;;5053896;28;20091;-73
2023/03/21 11:51:44;;;;;;;20.33;13.77;;;17.50;92.10;;;;;;5057695;28;20128;-73
2023/03/21 11:54:45;;;;;;;19.40;12.57;;;17.60;92.60;;;;;;5050681;28;20552;-73
2023/03/21 11:58:03;;;;;;;17.52;12.73;;;17.60;92.50;;;;;;5060246;28;20031;-73
2023/03/21 12:00:38;;;;;;;17.40;11.82;;;17.80;92.20;;;;;;5016652;28;20072;-72
2023/03/21 12:03:18;;;;;;;;;;;17.50;91.60;;;;;;5051251;28;20029;-73
2023/03/21 12:05:54;;;;;;;17.48;11.18;;;17.50;91.60;;;;;;5057141;28;19915;-73
2023/03/21 12:08:35;;;;;;;16.35;12.07;;;17.30;91.10;;;;;;5058894;28;20119;-73
2023/03/21 12:11:37;;;;;;;17.13;11.95;;;17.60;91.50;;;;;;5055667;28;20025;-72
2023/03/21 12:14:41;;;;;;;15.45;10.95;;;17.50;91.40;;;;;;5058123;28;20049;-72
2023/03/21 12:17:31;;;;;;;15.60;12.02;;;17.60;91.90;;;;;;5054733;28;20025;-73
2023/03/21 12:20:29;;;;;;;16.60;11.02;;;17.90;91.20;;;;;;5066006;28;20028;-73
2023/03/21 12:23:24;;;;;;;17.80;12.15;;;17.70;91.30;;;;;;5052461;28;20047;-73
2023/03/21 12:25:59;;;;;;;18.55;13.57;;;18.20;91.60;;;;;;5059683;28;20040;-72
2023/03/21 12:28:44;;;;;;;19.77;13.68;;;18.20;91.40;;;;;;5059720;28;20087;-72
2023/03/21 12:31:32;;;;;;;17.88;13.50;;;18.40;91.50;;;;;;5059024;28;20028;-73
2023/03/21 12:34:19;;;;;;;18.70;14.05;;;18.50;91.60;;;;;;5056113;28;20031;-73
2023/03/21 12:36:46;;;;;;;18.73;13.18;;;18.30;90.80;;;;;;5057931;28;20474;-73
2023/03/21 12:39:33;;;;;;;22.05;14.13;;;18.40;91.20;;;;;;5063621;28;20120;-73
2023/03/21 12:42:33;;;;;;;17.88;13.38;;;18.80;90.70;;;;;;5060539;28;20016;-73
2023/03/21 12:45:28;;;;;;;19.80;12.98;;;18.80;90.70;;;;;;5059556;28;20029;-72
2023/03/21 12:48:16;;;;;;;23.13;14.73;;;18.60;90.80;;;;;;5051608;28;20044;-72
2023/03/21 12:50:44;;;;;;;17.88;13.10;;;18.80;91.20;;;;;;5058595;28;20039;-73
2023/03/21 12:53:19;;;;;;;19.40;13.45;;;18.60;90.60;;;;;;5056305;28;20040;-73